Time,TemperatureF,DewpointF,PressureIn,WindDirection,WindDirectionDegrees,WindSpeedMPH,WindSpeedGustMPH,Humidity,HourlyPrecipIn,Conditions,Clouds,dailyrainin,SoftwareType,DateUTC
2013-07-03 00:00:00,63.3,62.7,30.03,North,350,0.0,0.0,98,0.00,,---,0.00,VWS V14.01,2013-07-03 04:00:00,
2013-07-03 00:01:00,63.1,62.5,30.03,North,350,0.0,0.0,98,0.00,,---,0.00,VWS V14.01,2013-07-03 04:01:00,
2013-07-03 00:02:00,63.1,62.5,30.03,North,350,0.0,0.0,98,0.00,,---,0.00,VWS V14.01,2013-07-03 04:02:00,
2013-07-03 00:03:00,63.1,62.5,30.03,North,350,0.0,0.0,98,0.00,,---,0.00,VWS V14.01,2013-07-03 04:03:00,
2013-07-03 00:04:00,63.1,62.5,30.03,North,350,0.0,0.0,98,0.00,,---,0.00,VWS V14.01,2013-07-03 04:04:00,
2013-07-03 00:06:00,63.1,62.5,30.03,North,350,0.0,0.0,98,0.00,,---,0.00,VWS V14.01,2013-07-03 04:06:00,
2013-07-03 00:08:00,63.1,62.5,30.03,North,350,0.0,0.0,98,0.00,,---,0.00,VWS V14.01,2013-07-03 04:08:00,
2013-07-03 00:10:00,63.1,62.5,30.03,North,350,0.0,0.0,98,0.00,,---,0.00,VWS V14.01,2013-07-03 04:10:00,
2013-07-03 00:15:00,62.9,62.3,30.03,North,350,0.0,0.0,98,0.00,,---,0.00,VWS V14.01,2013-07-03 04:15:00,
2013-07-03 00:20:00,62.9,62.3,30.03,North,350,0.0,0.0,98,0.00,,---,0.00,VWS V14.01,2013-07-03 04:20:00,
2013-07-03 00:25:00,62.9,62.3,30.03,North,350,0.0,0.0,98,0.00,,---,0.00,VWS V14.01,2013-07-03 04:25:00,
2013-07-03 00:30:00,62.7,62.2,30.03,North,350,0.0,0.0,98,0.00,,---,0.00,VWS V14.01,2013-07-03 04:30:00,
2013-07-03 00:32:00,62.7,62.2,30.03,North,350,0.0,0.0,98,0.00,,---,0.00,VWS V14.01,2013-07-03 04:32:00,
2013-07-03 00:34:00,62.7,62.2,30.00,North,350,0.0,0.0,98,0.00,,---,0.00,VWS V14.01,2013-07-03 04:34:00,
2013-07-03 00:39:00,62.7,62.2,30.00,North,350,0.0,0.0,98,0.00,,---,0.00,VWS V14.01,2013-07-03 04:39:00,
2013-07-03 00:44:00,62.5,62.0,30.00,SE,125,0.0,0.0,98,0.00,,---,0.00,VWS V14.01,2013-07-03 04:44:00,
2013-07-03 00:46:00,62.5,62.0,30.00,SE,125,0.0,0.0,98,0.00,,---,0.00,VWS V14.01,2013-07-03 04:46:00,
2013-07-03 00:51:00,62.5,62.0,30.03,SE,125,0.0,0.0,98,0.00,,---,0.00,VWS V14.01,2013-07-03 04:51:00,
2013-07-03 00:56:00,62.5,62.0,30.03,SE,125,0.0,0.0,98,0.00,,---,0.00,VWS V14.01,2013-07-03 04:56:00,
2013-07-03 01:01:00,62.5,62.0,30.03,SE,125,0.0,0.0,98,0.00,,---,0.00,VWS V14.01,2013-07-03 05:01:00,
2013-07-03 01:06:00,62.5,62.0,30.03,North,350,0.0,0.0,98,0.00,,---,0.00,VWS V14.01,2013-07-03 05:06:00,
2013-07-03 01:11:00,62.7,62.2,30.00,North,350,0.0,0.0,98,0.00,,---,0.00,VWS V14.01,2013-07-03 05:11:00,
2013-07-03 01:16:00,62.7,62.2,30.00,North,350,0.0,0.0,98,0.00,,---,0.00,VWS V14.01,2013-07-03 05:16:00,
2013-07-03 01:19:00,62.7,62.2,30.00,North,350,0.0,0.0,98,0.00,,---,0.00,VWS V14.01,2013-07-03 05:19:00,
2013-07-03 01:20:00,62.7,62.2,30.00,North,350,0.0,0.0,98,0.00,,---,0.00,VWS V14.01,2013-07-03 05:20:00,
2013-07-03 01:25:00,62.7,62.2,30.00,North,350,0.0,0.0,98,0.00,,---,0.00,VWS V14.01,2013-07-03 05:25:00,
2013-07-03 01:30:00,62.7,62.2,30.00,SE,125,0.0,0.0,98,0.00,,---,0.00,VWS V14.01,2013-07-03 05:30:00,
2013-07-03 01:36:00,62.7,62.2,30.00,SE,125,0.0,0.0,98,0.00,,---,0.00,VWS V14.01,2013-07-03 05:36:00,
2013-07-03 01:41:00,62.7,62.2,30.00,North,350,0.0,0.0,98,0.00,,---,0.00,VWS V14.01,2013-07-03 05:41:00,
2013-07-03 01:47:00,62.7,62.2,30.00,North,350,0.0,0.0,98,0.00,,---,0.00,VWS V14.01,2013-07-03 05:47:00,
2013-07-03 01:52:00,62.7,62.2,30.00,North,350,0.0,0.0,98,0.00,,---,0.00,VWS V14.01,2013-07-03 05:52:00,
2013-07-03 01:56:00,62.5,62.0,30.00,North,350,0.0,0.0,98,0.00,,---,0.00,VWS V14.01,2013-07-03 05:56:00,
2013-07-03 01:57:00,62.5,62.0,30.00,North,350,0.0,0.0,98,0.00,,---,0.00,VWS V14.01,2013-07-03 05:57:00,
2013-07-03 02:02:00,62.5,62.0,30.00,East,80,0.0,0.0,98,0.00,,---,0.00,VWS V14.01,2013-07-03 06:02:00,
2013-07-03 02:04:00,62.5,62.0,30.00,East,80,0.0,0.0,98,0.00,,---,0.00,VWS V14.01,2013-07-03 06:04:00,
2013-07-03 02:09:00,62.7,62.2,30.00,East,80,0.0,0.0,98,0.00,,---,0.00,VWS V14.01,2013-07-03 06:09:00,
2013-07-03 02:14:00,62.7,62.2,30.00,East,80,0.0,0.0,98,0.00,,---,0.00,VWS V14.01,2013-07-03 06:14:00,
2013-07-03 02:18:00,62.5,62.0,30.00,East,80,0.0,0.0,98,0.00,,---,0.00,VWS V14.01,2013-07-03 06:18:00,
2013-07-03 02:19:00,62.5,62.0,30.00,East,80,0.0,0.0,98,0.00,,---,0.00,VWS V14.01,2013-07-03 06:19:00,
2013-07-03 02:23:00,62.5,62.0,30.00,East,80,0.0,0.0,98,0.00,,---,0.00,VWS V14.01,2013-07-03 06:23:00,
2013-07-03 02:26:00,62.5,62.0,30.00,East,80,0.0,0.0,98,0.00,,---,0.00,VWS V14.01,2013-07-03 06:26:00,
2013-07-03 02:28:00,62.5,62.0,30.00,East,80,0.0,0.0,98,0.00,,---,0.00,VWS V14.01,2013-07-03 06:28:00,
2013-07-03 02:33:00,62.4,61.8,30.00,East,80,0.0,0.0,98,0.00,,---,0.00,VWS V14.01,2013-07-03 06:33:00,
2013-07-03 02:34:00,62.4,61.8,30.00,East,80,0.0,0.0,98,0.00,,---,0.00,VWS V14.01,2013-07-03 06:34:00,
2013-07-03 02:39:00,62.4,61.8,30.00,SE,125,1.3,1.3,98,0.00,,---,0.00,VWS V14.01,2013-07-03 06:39:00,
2013-07-03 02:44:00,62.4,61.8,30.00,SE,125,1.7,1.7,98,0.00,,---,0.00,VWS V14.01,2013-07-03 06:44:00,
2013-07-03 02:49:00,62.5,62.0,30.00,East,80,0.0,0.0,98,0.00,,---,0.00,VWS V14.01,2013-07-03 06:49:00,
2013-07-03 02:50:00,62.5,62.0,30.00,East,80,7.9,7.9,98,0.00,,---,0.00,VWS V14.01,2013-07-03 06:50:00,
2013-07-03 02:55:00,62.5,62.0,30.00,SE,125,0.0,0.0,98,0.00,,---,0.00,VWS V14.01,2013-07-03 06:55:00,
2013-07-03 03:01:00,62.5,62.0,30.00,SE,125,1.7,1.7,98,0.00,,---,0.00,VWS V14.01,2013-07-03 07:01:00,
2013-07-03 03:07:00,62.5,62.0,30.00,SE,125,4.3,4.3,98,0.00,,---,0.00,VWS V14.01,2013-07-03 07:07:00,
2013-07-03 03:12:00,62.5,62.0,30.00,ESE,102,0.0,0.0,98,0.00,,---,0.00,VWS V14.01,2013-07-03 07:12:00,
2013-07-03 03:17:00,62.7,62.2,30.00,East,80,0.0,0.0,98,0.00,,---,0.00,VWS V14.01,2013-07-03 07:17:00,
2013-07-03 03:22:00,62.7,62.2,30.00,ESE,102,4.0,4.0,98,0.00,,---,0.00,VWS V14.01,2013-07-03 07:22:00,
2013-07-03 03:28:00,62.7,62.2,30.00,NE,35,0.0,0.0,98,0.00,,---,0.00,VWS V14.01,2013-07-03 07:28:00,
2013-07-03 03:33:00,62.7,62.2,29.97,East,80,0.0,0.0,98,0.00,,---,0.00,VWS V14.01,2013-07-03 07:33:00,
2013-07-03 03:38:00,62.9,62.3,29.97,SE,125,2.0,2.0,98,0.00,,---,0.00,VWS V14.01,2013-07-03 07:38:00,
2013-07-03 03:43:00,62.9,62.3,29.97,ESE,102,1.7,3.3,98,0.00,,---,0.00,VWS V14.01,2013-07-03 07:43:00,
2013-07-03 03:49:00,62.9,62.3,29.97,ESE,102,0.0,0.0,98,0.00,,---,0.00,VWS V14.01,2013-07-03 07:49:00,
2013-07-03 03:52:00,62.9,62.3,29.97,ESE,102,0.0,0.0,98,0.00,,---,0.00,VWS V14.01,2013-07-03 07:52:00,
2013-07-03 03:58:00,62.9,62.3,29.97,SE,125,1.7,2.3,98,0.00,,---,0.00,VWS V14.01,2013-07-03 07:58:00,
2013-07-03 04:01:00,63.1,62.5,29.97,SE,125,2.0,2.0,98,0.00,,---,0.00,VWS V14.01,2013-07-03 08:01:00,
2013-07-03 04:07:00,62.9,62.3,29.97,SE,125,3.6,4.3,98,0.00,,---,0.00,VWS V14.01,2013-07-03 08:07:00,
2013-07-03 04:08:00,62.9,62.3,29.97,SE,125,3.6,4.3,98,0.00,,---,0.00,VWS V14.01,2013-07-03 08:08:00,
2013-07-03 04:13:00,62.9,62.3,29.97,SE,125,3.6,3.6,98,0.00,,---,0.00,VWS V14.01,2013-07-03 08:13:00,
2013-07-03 04:14:00,62.9,62.3,29.97,SE,125,3.6,3.6,98,0.00,,---,0.00,VWS V14.01,2013-07-03 08:14:00,
2013-07-03 04:19:00,63.1,62.5,29.97,ESE,102,5.6,5.6,98,0.00,,---,0.00,VWS V14.01,2013-07-03 08:19:00,
2013-07-03 04:24:00,63.1,62.5,29.97,SE,125,2.3,2.3,98,0.00,,---,0.00,VWS V14.01,2013-07-03 08:24:00,
2013-07-03 04:29:00,62.9,62.3,29.97,SE,125,4.0,4.0,98,0.00,,---,0.00,VWS V14.01,2013-07-03 08:29:00,
2013-07-03 04:35:00,62.9,62.3,30.00,ESE,102,5.0,5.0,98,0.00,,---,0.00,VWS V14.01,2013-07-03 08:35:00,
2013-07-03 04:40:00,63.1,62.5,30.00,SE,125,5.0,5.0,98,0.00,,---,0.00,VWS V14.01,2013-07-03 08:40:00,
2013-07-03 04:46:00,63.3,62.7,30.00,ESE,102,4.6,4.6,98,0.00,,---,0.00,VWS V14.01,2013-07-03 08:46:00,
2013-07-03 04:52:00,63.3,62.7,30.00,SE,125,4.6,4.6,98,0.00,,---,0.00,VWS V14.01,2013-07-03 08:52:00,
2013-07-03 04:56:00,63.3,62.7,30.00,SE,125,7.3,7.3,98,0.00,,---,0.00,VWS V14.01,2013-07-03 08:56:00,
2013-07-03 05:00:00,63.3,62.7,30.00,SE,125,7.3,7.3,98,0.00,,---,0.00,VWS V14.01,2013-07-03 09:00:00,
2013-07-03 05:06:00,63.3,62.7,30.00,SE,125,7.3,7.3,98,0.00,,---,0.00,VWS V14.01,2013-07-03 09:06:00,
2013-07-03 05:11:00,63.1,62.5,30.00,ESE,102,5.0,5.0,98,0.00,,---,0.00,VWS V14.01,2013-07-03 09:11:00,
2013-07-03 05:17:00,63.1,62.5,30.00,SE,125,4.6,4.6,98,0.00,,---,0.00,VWS V14.01,2013-07-03 09:17:00,
2013-07-03 05:22:00,63.1,62.5,30.00,SE,125,5.6,5.6,98,0.00,,---,0.00,VWS V14.01,2013-07-03 09:22:00,
2013-07-03 05:27:00,63.1,62.5,30.00,SE,125,3.0,3.0,98,0.00,,---,0.00,VWS V14.01,2013-07-03 09:27:00,
2013-07-03 05:32:00,63.3,62.7,30.00,SE,125,4.6,4.6,98,0.00,,---,0.00,VWS V14.01,2013-07-03 09:32:00,
2013-07-03 05:38:00,63.3,62.7,30.00,NW,305,4.3,4.3,98,0.00,,---,0.00,VWS V14.01,2013-07-03 09:38:00,
2013-07-03 05:42:00,63.3,62.7,30.00,ESE,102,6.3,6.3,98,0.00,,---,0.00,VWS V14.01,2013-07-03 09:42:00,
2013-07-03 05:47:00,63.4,62.9,30.00,SE,125,0.0,7.9,98,0.00,,---,0.00,VWS V14.01,2013-07-03 09:47:00,
2013-07-03 05:50:00,63.4,62.9,30.00,SE,125,3.6,3.6,98,0.00,,---,0.00,VWS V14.01,2013-07-03 09:50:00,
2013-07-03 05:56:00,63.4,62.9,30.00,SE,125,4.0,7.3,98,0.00,,---,0.00,VWS V14.01,2013-07-03 09:56:00,
2013-07-03 06:01:00,63.4,62.9,30.00,SE,125,4.0,4.0,98,0.00,,---,0.00,VWS V14.01,2013-07-03 10:01:00,
2013-07-03 06:05:00,63.6,63.0,30.00,ESE,102,0.0,3.3,98,0.00,,---,0.00,VWS V14.01,2013-07-03 10:05:00,
2013-07-03 06:06:00,63.6,63.0,30.00,ESE,102,0.0,3.3,98,0.00,,---,0.00,VWS V14.01,2013-07-03 10:06:00,
2013-07-03 06:11:00,63.6,63.0,30.00,ESE,102,9.6,9.6,98,0.00,,---,0.00,VWS V14.01,2013-07-03 10:11:00,
2013-07-03 06:16:00,63.6,63.0,30.00,SE,125,3.0,3.0,98,0.00,,---,0.00,VWS V14.01,2013-07-03 10:16:00,
2013-07-03 06:21:00,63.6,63.0,30.00,South,170,4.6,4.6,98,0.00,,---,0.00,VWS V14.01,2013-07-03 10:21:00,
2013-07-03 06:27:00,63.6,63.0,30.00,SE,125,6.3,6.3,98,0.00,,---,0.00,VWS V14.01,2013-07-03 10:27:00,
2013-07-03 06:32:00,63.6,63.0,30.00,SE,125,6.3,6.3,98,0.00,,---,0.00,VWS V14.01,2013-07-03 10:32:00,
2013-07-03 06:36:00,63.6,63.0,30.00,East,80,0.0,0.0,98,0.00,,---,0.00,VWS V14.01,2013-07-03 10:36:00,
2013-07-03 06:42:00,63.8,63.2,30.00,East,80,1.7,1.7,98,0.00,,---,0.00,VWS V14.01,2013-07-03 10:42:00,
2013-07-03 06:48:00,63.8,63.2,30.00,SE,125,2.0,7.3,98,0.00,,---,0.00,VWS V14.01,2013-07-03 10:48:00,
2013-07-03 06:53:00,63.8,63.2,30.00,SE,125,4.0,4.0,98,0.00,,---,0.00,VWS V14.01,2013-07-03 10:53:00,
2013-07-03 06:54:00,63.8,63.2,30.00,SE,125,4.0,4.0,98,0.00,,---,0.00,VWS V14.01,2013-07-03 10:54:00,
2013-07-03 06:59:00,63.8,63.2,30.00,ESE,102,3.6,3.6,98,0.00,,---,0.00,VWS V14.01,2013-07-03 10:59:00,
2013-07-03 07:00:00,63.8,63.2,30.00,ESE,102,3.6,3.6,98,0.00,,---,0.00,VWS V14.01,2013-07-03 11:00:00,
2013-07-03 07:05:00,64.0,63.4,30.00,ESE,102,3.6,3.6,98,0.00,,---,0.00,VWS V14.01,2013-07-03 11:05:00,
2013-07-03 07:10:00,64.0,63.4,30.00,South,170,1.3,4.6,98,0.00,,---,0.00,VWS V14.01,2013-07-03 11:10:00,
2013-07-03 07:12:00,64.0,63.4,30.00,SE,125,4.0,4.0,98,0.00,,---,0.00,VWS V14.01,2013-07-03 11:12:00,
2013-07-03 07:18:00,64.2,63.6,30.00,SE,125,4.0,4.0,98,0.00,,---,0.00,VWS V14.01,2013-07-03 11:18:00,
2013-07-03 07:20:00,64.2,63.6,30.00,SE,125,4.0,4.0,98,0.00,,---,0.00,VWS V14.01,2013-07-03 11:20:00,
2013-07-03 07:24:00,64.2,63.6,30.00,SE,125,4.0,4.0,98,0.00,,---,0.00,VWS V14.01,2013-07-03 11:24:00,
2013-07-03 07:25:00,64.2,63.6,30.00,East,80,3.6,4.0,98,0.00,,---,0.00,VWS V14.01,2013-07-03 11:25:00,
2013-07-03 07:30:00,64.3,63.8,30.00,East,80,3.6,3.6,98,0.00,,---,0.00,VWS V14.01,2013-07-03 11:30:00,
2013-07-03 07:36:00,64.3,63.8,30.03,East,80,3.6,3.6,98,0.00,,---,0.00,VWS V14.01,2013-07-03 11:36:00,
2013-07-03 07:41:00,64.3,63.8,30.03,SE,125,8.6,8.6,98,0.00,,---,0.00,VWS V14.01,2013-07-03 11:41:00,
2013-07-03 07:46:00,64.5,64.0,30.03,SE,125,5.6,8.6,98,0.00,,---,0.00,VWS V14.01,2013-07-03 11:46:00,
2013-07-03 07:51:00,64.5,64.0,30.03,SE,125,5.6,5.6,98,0.00,,---,0.00,VWS V14.01,2013-07-03 11:51:00,
2013-07-03 07:56:00,64.7,64.1,30.03,SE,125,1.7,3.3,98,0.00,,---,0.00,VWS V14.01,2013-07-03 11:56:00,
2013-07-03 08:02:00,64.7,64.1,30.03,South,170,4.3,4.3,98,0.00,,---,0.00,VWS V14.01,2013-07-03 12:02:00,
2013-07-03 08:06:00,64.7,64.1,30.03,SE,125,8.3,8.3,98,0.00,,---,0.00,VWS V14.01,2013-07-03 12:06:00,
2013-07-03 08:11:00,64.9,64.3,30.03,SE,125,3.6,3.6,98,0.00,,---,0.00,VWS V14.01,2013-07-03 12:11:00,
2013-07-03 08:13:00,64.9,64.3,30.03,SE,125,3.6,3.6,98,0.00,,---,0.00,VWS V14.01,2013-07-03 12:13:00,
2013-07-03 08:19:00,64.9,64.3,30.03,SE,125,6.3,6.3,98,0.00,,---,0.00,VWS V14.01,2013-07-03 12:19:00,
2013-07-03 08:20:00,64.9,64.3,30.03,SE,125,6.3,6.3,98,0.00,,---,0.00,VWS V14.01,2013-07-03 12:20:00,
2013-07-03 08:26:00,65.1,64.5,30.03,SE,125,5.3,7.0,98,0.00,,---,0.00,VWS V14.01,2013-07-03 12:26:00,
2013-07-03 08:31:00,65.1,64.5,30.03,SE,125,2.3,2.3,98,0.00,,---,0.00,VWS V14.01,2013-07-03 12:31:00,
2013-07-03 08:36:00,65.2,64.7,30.03,SE,125,3.6,3.6,98,0.00,,---,0.00,VWS V14.01,2013-07-03 12:36:00,
2013-07-03 08:41:00,65.4,64.8,30.03,SE,125,6.0,7.0,98,0.00,,---,0.00,VWS V14.01,2013-07-03 12:41:00,
2013-07-03 08:46:00,65.4,64.8,30.03,SE,125,4.3,4.6,98,0.00,,---,0.00,VWS V14.01,2013-07-03 12:46:00,
2013-07-03 08:51:00,65.4,64.8,30.03,SE,125,10.6,10.6,98,0.00,,---,0.00,VWS V14.01,2013-07-03 12:51:00,
2013-07-03 08:56:00,65.4,64.8,30.03,SE,125,5.6,5.6,98,0.00,,---,0.00,VWS V14.01,2013-07-03 12:56:00,
2013-07-03 09:01:00,65.4,64.8,30.03,South,170,3.6,5.3,98,0.00,,---,0.00,VWS V14.01,2013-07-03 13:01:00,
2013-07-03 09:06:00,65.6,65.0,30.03,SE,125,7.9,7.9,98,0.00,,---,0.00,VWS V14.01,2013-07-03 13:06:00,
2013-07-03 09:12:00,65.6,65.0,30.03,South,170,2.0,7.0,98,0.00,,---,0.00,VWS V14.01,2013-07-03 13:12:00,
2013-07-03 09:18:00,65.8,65.2,30.03,SE,125,4.0,4.0,98,0.00,,---,0.00,VWS V14.01,2013-07-03 13:18:00,
2013-07-03 09:24:00,65.8,65.2,30.06,ESE,102,3.6,3.6,98,0.00,,---,0.00,VWS V14.01,2013-07-03 13:24:00,
2013-07-03 09:27:00,65.8,65.2,30.06,ESE,102,3.6,3.6,98,0.00,,---,0.00,VWS V14.01,2013-07-03 13:27:00,
2013-07-03 09:30:00,65.8,65.2,30.06,ESE,102,3.6,3.6,98,0.00,,---,0.00,VWS V14.01,2013-07-03 13:30:00,
2013-07-03 09:36:00,65.8,65.2,30.06,South,170,1.3,5.0,98,0.00,,---,0.00,VWS V14.01,2013-07-03 13:36:00,
2013-07-03 09:38:00,65.8,65.2,30.06,South,170,4.3,4.3,98,0.00,,---,0.00,VWS V14.01,2013-07-03 13:38:00,
2013-07-03 09:44:00,65.8,65.2,30.06,SE,125,4.0,4.0,98,0.00,,---,0.00,VWS V14.01,2013-07-03 13:44:00,
2013-07-03 09:49:00,66.0,65.4,30.06,South,170,3.6,4.0,98,0.00,,---,0.00,VWS V14.01,2013-07-03 13:49:00,
2013-07-03 09:54:00,66.1,65.6,30.06,SE,125,3.6,3.6,98,0.00,,---,0.00,VWS V14.01,2013-07-03 13:54:00,
2013-07-03 09:59:00,66.3,65.7,30.06,SE,125,3.3,4.0,98,0.00,,---,0.00,VWS V14.01,2013-07-03 13:59:00,
2013-07-03 10:05:00,66.5,65.9,30.06,SW,215,4.3,4.6,98,0.00,,---,0.00,VWS V14.01,2013-07-03 14:05:00,
2013-07-03 10:10:00,66.7,66.1,30.06,South,170,1.7,4.0,98,0.00,,---,0.00,VWS V14.01,2013-07-03 14:10:00,
2013-07-03 10:12:00,66.9,66.3,30.06,SE,125,4.3,5.0,98,0.00,,---,0.00,VWS V14.01,2013-07-03 14:12:00,
2013-07-03 10:17:00,66.9,66.3,30.06,ESE,102,1.3,2.3,98,0.00,,---,0.00,VWS V14.01,2013-07-03 14:17:00,
2013-07-03 10:20:00,66.9,66.3,30.06,West,260,2.0,2.0,98,0.00,,---,0.00,VWS V14.01,2013-07-03 14:20:00,
2013-07-03 10:25:00,66.9,66.3,30.06,SE,125,3.6,5.0,98,0.00,,---,0.00,VWS V14.01,2013-07-03 14:25:00,
2013-07-03 10:30:00,67.0,66.5,30.06,SE,125,4.0,4.0,98,0.00,,---,0.00,VWS V14.01,2013-07-03 14:30:00,
2013-07-03 10:32:00,66.9,66.3,30.06,SE,125,4.0,4.0,98,0.00,,---,0.00,VWS V14.01,2013-07-03 14:32:00,
2013-07-03 10:37:00,67.0,66.5,30.06,West,260,0.0,0.0,98,0.00,,---,0.00,VWS V14.01,2013-07-03 14:37:00,
2013-07-03 10:44:00,67.2,66.6,30.06,SE,125,4.0,4.0,98,0.00,,---,0.00,VWS V14.01,2013-07-03 14:44:00,
2013-07-03 10:45:00,67.2,66.6,30.06,SE,125,4.3,4.3,98,0.00,,---,0.00,VWS V14.01,2013-07-03 14:45:00,
2013-07-03 10:51:00,67.2,66.6,30.06,SW,215,6.3,6.3,98,0.00,,---,0.00,VWS V14.01,2013-07-03 14:51:00,
2013-07-03 10:52:00,67.4,66.8,30.06,SE,125,5.3,6.3,98,0.00,,---,0.00,VWS V14.01,2013-07-03 14:52:00,
2013-07-03 10:58:00,67.4,66.8,30.06,SE,125,5.3,5.3,98,0.00,,---,0.00,VWS V14.01,2013-07-03 14:58:00,
2013-07-03 10:59:00,67.4,66.8,30.06,SE,125,5.3,5.3,98,0.00,,---,0.00,VWS V14.01,2013-07-03 14:59:00,
2013-07-03 11:04:00,67.4,66.8,30.06,ESE,102,6.3,6.3,98,0.00,,---,0.00,VWS V14.01,2013-07-03 15:04:00,
2013-07-03 11:10:00,67.8,67.2,30.06,SE,125,4.6,4.6,98,0.00,,---,0.00,VWS V14.01,2013-07-03 15:10:00,
2013-07-03 11:15:00,67.8,67.2,30.06,SW,215,4.6,4.6,98,0.00,,---,0.00,VWS V14.01,2013-07-03 15:15:00,
2013-07-03 11:20:00,68.5,67.9,30.06,SE,125,4.3,5.0,98,0.00,,---,0.00,VWS V14.01,2013-07-03 15:20:00,
2013-07-03 11:25:00,68.8,68.3,30.06,SE,125,4.3,9.3,98,0.00,,---,0.00,VWS V14.01,2013-07-03 15:25:00,
2013-07-03 11:30:00,69.0,68.4,30.06,SW,215,5.3,7.3,98,0.00,,---,0.00,VWS V14.01,2013-07-03 15:30:00,
2013-07-03 11:35:00,68.8,68.3,30.06,SE,125,4.3,4.3,98,0.00,,---,0.00,VWS V14.01,2013-07-03 15:35:00,
2013-07-03 11:40:00,68.8,68.3,30.06,NW,305,4.0,4.0,98,0.00,,---,0.00,VWS V14.01,2013-07-03 15:40:00,
2013-07-03 11:41:00,68.8,68.3,30.06,SE,125,3.3,4.0,98,0.00,,---,0.00,VWS V14.01,2013-07-03 15:41:00,
2013-07-03 11:47:00,69.2,68.6,30.06,SE,125,5.0,5.0,98,0.00,,---,0.00,VWS V14.01,2013-07-03 15:47:00,
2013-07-03 11:52:00,69.2,68.6,30.06,SW,215,1.3,5.0,98,0.00,,---,0.00,VWS V14.01,2013-07-03 15:52:00,
2013-07-03 11:53:00,69.2,68.6,30.06,SW,215,7.9,7.9,98,0.00,,---,0.00,VWS V14.01,2013-07-03 15:53:00,
2013-07-03 11:55:00,69.2,68.6,30.06,SE,125,4.6,7.9,98,0.00,,---,0.00,VWS V14.01,2013-07-03 15:55:00,
2013-07-03 12:00:00,69.6,69.0,30.06,SE,125,5.0,5.0,98,0.00,,---,0.00,VWS V14.01,2013-07-03 16:00:00,
2013-07-03 12:05:00,69.7,69.2,30.06,SE,125,5.0,9.3,98,0.00,,---,0.00,VWS V14.01,2013-07-03 16:05:00,
2013-07-03 12:11:00,69.9,69.3,30.06,ESE,102,4.6,8.3,98,0.00,,---,0.00,VWS V14.01,2013-07-03 16:11:00,
2013-07-03 12:16:00,69.6,69.0,30.06,SE,125,4.3,9.3,98,0.00,,---,0.00,VWS V14.01,2013-07-03 16:16:00,
2013-07-03 12:21:00,69.9,68.7,30.06,WNW,282,2.0,7.3,96,0.00,,---,0.00,VWS V14.01,2013-07-03 16:21:00,
2013-07-03 12:26:00,70.5,69.6,30.06,SW,215,6.0,6.0,97,0.00,,---,0.00,VWS V14.01,2013-07-03 16:26:00,
2013-07-03 12:32:00,70.5,69.6,30.06,SE,125,5.6,7.9,97,0.00,,---,0.00,VWS V14.01,2013-07-03 16:32:00,
2013-07-03 12:37:00,70.3,68.8,30.06,SW,215,5.0,5.6,95,0.00,,---,0.00,VWS V14.01,2013-07-03 16:37:00,
2013-07-03 12:42:00,70.1,68.9,30.06,ESE,102,8.6,8.6,96,0.00,,---,0.00,VWS V14.01,2013-07-03 16:42:00,
2013-07-03 12:47:00,70.1,68.9,30.06,SE,125,4.0,4.6,96,0.00,,---,0.00,VWS V14.01,2013-07-03 16:47:00,
2013-07-03 12:54:00,69.9,68.4,30.06,SE,125,8.3,8.3,95,0.00,,---,0.00,VWS V14.01,2013-07-03 16:54:00,
2013-07-03 12:59:00,70.3,69.1,30.06,ENE,58,3.6,6.3,96,0.00,,---,0.00,VWS V14.01,2013-07-03 16:59:00,
2013-07-03 13:04:00,70.6,69.8,30.06,SE,125,0.0,2.3,97,0.00,,---,0.00,VWS V14.01,2013-07-03 17:04:00,
2013-07-03 13:09:00,71.2,70.0,30.06,SE,125,5.0,5.0,96,0.00,,---,0.00,VWS V14.01,2013-07-03 17:09:00,
2013-07-03 13:14:00,71.7,70.2,30.06,SE,125,9.6,9.6,95,0.00,,---,0.00,VWS V14.01,2013-07-03 17:14:00,
2013-07-03 13:19:00,72.1,70.6,30.06,SE,125,5.3,5.6,95,0.00,,---,0.00,VWS V14.01,2013-07-03 17:19:00,
2013-07-03 13:26:00,73.0,71.2,30.06,SE,125,8.6,8.6,94,0.00,,---,0.00,VWS V14.01,2013-07-03 17:26:00,
2013-07-03 13:31:00,72.6,70.5,30.06,SW,215,0.0,2.3,93,0.00,,---,0.00,VWS V14.01,2013-07-03 17:31:00,
2013-07-03 13:36:00,73.3,71.2,30.06,West,260,2.0,2.0,93,0.00,,---,0.00,VWS V14.01,2013-07-03 17:36:00,
2013-07-03 13:42:00,73.5,71.4,30.06,SE,125,6.0,6.0,93,0.00,,---,0.00,VWS V14.01,2013-07-03 17:42:00,
2013-07-03 13:48:00,73.3,70.9,30.06,West,260,8.3,8.3,92,0.00,,---,0.00,VWS V14.01,2013-07-03 17:48:00,
2013-07-03 13:53:00,75.1,72.3,30.03,NW,305,2.0,3.0,91,0.00,,---,0.00,VWS V14.01,2013-07-03 17:53:00,
2013-07-03 13:59:00,74.2,70.8,30.03,SW,215,8.9,8.9,89,0.00,,---,0.00,VWS V14.01,2013-07-03 17:59:00,
2013-07-03 14:04:00,75.3,71.5,30.03,NW,305,3.6,3.6,88,0.00,,---,0.00,VWS V14.01,2013-07-03 18:04:00,
2013-07-03 14:09:00,75.1,71.3,30.03,SE,125,4.3,8.3,88,0.00,,---,0.00,VWS V14.01,2013-07-03 18:09:00,
2013-07-03 14:14:00,75.7,70.9,30.03,East,80,15.2,15.2,85,0.00,,---,0.00,VWS V14.01,2013-07-03 18:14:00,
2013-07-03 14:19:00,76.4,71.6,30.03,NW,305,5.6,5.6,85,0.00,,---,0.00,VWS V14.01,2013-07-03 18:19:00,
2013-07-03 14:24:00,76.2,70.3,30.03,West,260,9.3,9.3,82,0.00,,---,0.00,VWS V14.01,2013-07-03 18:24:00,
2013-07-03 14:29:00,75.1,67.8,30.03,SW,215,5.6,11.9,78,0.00,,---,0.00,VWS V14.01,2013-07-03 18:29:00,
2013-07-03 14:34:00,74.6,66.9,30.03,SE,125,7.9,7.9,77,0.00,,---,0.00,VWS V14.01,2013-07-03 18:34:00,
2013-07-03 14:40:00,76.4,66.3,30.03,SE,125,4.0,4.3,71,0.00,,---,0.00,VWS V14.01,2013-07-03 18:40:00,
2013-07-03 14:45:00,76.9,66.0,30.03,SW,215,5.3,5.6,69,0.00,,---,0.00,VWS V14.01,2013-07-03 18:45:00,
2013-07-03 14:50:00,76.2,65.7,30.03,SE,125,8.6,8.6,70,0.00,,---,0.00,VWS V14.01,2013-07-03 18:50:00,
2013-07-03 14:55:00,75.5,64.6,30.03,SW,215,5.6,5.6,69,0.00,,---,0.00,VWS V14.01,2013-07-03 18:55:00,
2013-07-03 15:01:00,76.0,64.7,30.03,SE,125,3.0,6.0,68,0.00,,---,0.00,VWS V14.01,2013-07-03 19:01:00,
2013-07-03 15:06:00,76.9,65.6,30.03,ESE,102,5.0,6.3,68,0.00,,---,0.00,VWS V14.01,2013-07-03 19:06:00,
2013-07-03 15:11:00,76.8,64.1,30.03,SE,125,4.3,8.9,65,0.00,,---,0.00,VWS V14.01,2013-07-03 19:11:00,
2013-07-03 15:16:00,77.3,65.5,30.03,West,260,5.0,6.0,67,0.00,,---,0.00,VWS V14.01,2013-07-03 19:16:00,
2013-07-03 15:21:00,77.5,63.9,30.03,SE,125,6.3,10.9,63,0.00,,---,0.00,VWS V14.01,2013-07-03 19:21:00,
2013-07-03 15:27:00,78.4,66.9,30.03,SW,215,0.0,4.6,68,0.00,,---,0.00,VWS V14.01,2013-07-03 19:27:00,
2013-07-03 15:33:00,77.8,65.6,30.03,SE,125,6.3,9.6,66,0.00,,---,0.00,VWS V14.01,2013-07-03 19:33:00,
2013-07-03 15:38:00,77.5,65.7,30.03,SE,125,3.0,3.6,67,0.00,,---,0.00,VWS V14.01,2013-07-03 19:38:00,
2013-07-03 15:43:00,76.4,65.1,30.03,East,80,4.0,9.3,68,0.00,,---,0.00,VWS V14.01,2013-07-03 19:43:00,
2013-07-03 15:48:00,75.5,63.4,30.03,SW,215,4.6,6.3,66,0.00,,---,0.00,VWS V14.01,2013-07-03 19:48:00,
2013-07-03 15:53:00,76.6,64.4,30.03,SE,125,2.0,5.3,66,0.00,,---,0.00,VWS V14.01,2013-07-03 19:53:00,
2013-07-03 15:59:00,77.1,65.3,30.03,West,260,5.3,5.3,67,0.00,,---,0.00,VWS V14.01,2013-07-03 19:59:00,
2013-07-03 16:04:00,76.4,63.3,30.03,SE,125,5.3,5.3,64,0.00,,---,0.00,VWS V14.01,2013-07-03 20:04:00,
2013-07-03 16:09:00,77.7,65.8,30.03,SE,125,3.3,7.0,67,0.00,,---,0.00,VWS V14.01,2013-07-03 20:09:00,
2013-07-03 16:14:00,78.4,65.2,30.03,SW,215,4.3,4.6,64,0.00,,---,0.00,VWS V14.01,2013-07-03 20:14:00,
2013-07-03 16:20:00,78.6,64.0,30.03,SE,125,8.3,8.3,61,0.00,,---,0.00,VWS V14.01,2013-07-03 20:20:00,
2013-07-03 16:26:00,78.6,64.5,30.03,SE,125,14.2,14.2,62,0.00,,---,0.00,VWS V14.01,2013-07-03 20:26:00,
2013-07-03 16:32:00,78.4,62.9,30.03,SE,125,10.6,10.6,59,0.00,,---,0.00,VWS V14.01,2013-07-03 20:32:00,
2013-07-03 16:37:00,78.7,62.7,30.03,SE,125,9.3,9.3,58,0.00,,---,0.00,VWS V14.01,2013-07-03 20:37:00,
2013-07-03 16:42:00,78.2,61.7,30.03,SW,215,5.6,5.6,57,0.00,,---,0.00,VWS V14.01,2013-07-03 20:42:00,
2013-07-03 16:48:00,78.4,61.4,30.03,SW,215,4.3,8.3,56,0.00,,---,0.00,VWS V14.01,2013-07-03 20:48:00,
2013-07-03 16:53:00,78.7,61.2,30.03,West,260,10.9,10.9,55,0.00,,---,0.00,VWS V14.01,2013-07-03 20:53:00,
2013-07-03 16:58:00,78.7,61.2,30.03,SE,125,6.0,6.0,55,0.00,,---,0.00,VWS V14.01,2013-07-03 20:58:00,
2013-07-03 17:04:00,78.4,61.4,30.03,ESE,102,3.0,3.0,56,0.00,,---,0.00,VWS V14.01,2013-07-03 21:04:00,
2013-07-03 17:09:00,77.5,60.6,30.03,SE,125,10.9,10.9,56,0.00,,---,0.00,VWS V14.01,2013-07-03 21:09:00,
2013-07-03 17:14:00,76.9,59.0,30.03,West,260,4.0,7.3,54,0.00,,---,0.00,VWS V14.01,2013-07-03 21:14:00,
2013-07-03 17:20:00,76.8,59.4,30.03,SE,125,15.9,15.9,55,0.00,,---,0.00,VWS V14.01,2013-07-03 21:20:00,
2013-07-03 17:25:00,76.9,60.1,30.03,East,80,4.0,15.9,56,0.00,,---,0.00,VWS V14.01,2013-07-03 21:25:00,
2013-07-03 17:32:00,76.2,59.9,30.03,West,260,5.0,5.0,57,0.00,,---,0.00,VWS V14.01,2013-07-03 21:32:00,
2013-07-03 17:37:00,76.0,60.7,30.03,SE,125,6.0,8.9,59,0.00,,---,0.00,VWS V14.01,2013-07-03 21:37:00,
2013-07-03 17:44:00,76.0,59.7,30.03,SE,125,7.9,8.3,57,0.00,,---,0.00,VWS V14.01,2013-07-03 21:44:00,
2013-07-03 17:49:00,76.2,60.9,30.00,ESE,102,6.0,6.0,59,0.00,,---,0.00,VWS V14.01,2013-07-03 21:49:00,
2013-07-03 17:54:00,76.0,60.2,30.00,WSW,238,7.3,7.3,58,0.00,,---,0.00,VWS V14.01,2013-07-03 21:54:00,
2013-07-03 17:59:00,76.0,60.7,30.00,SE,125,11.3,11.3,59,0.00,,---,0.00,VWS V14.01,2013-07-03 21:59:00,
2013-07-03 18:05:00,76.0,61.2,30.00,SW,215,2.3,2.3,60,0.00,,---,0.00,VWS V14.01,2013-07-03 22:05:00,
2013-07-03 18:10:00,76.2,60.9,30.00,West,260,2.3,5.0,59,0.00,,---,0.00,VWS V14.01,2013-07-03 22:10:00,
2013-07-03 18:15:00,76.0,60.7,30.00,West,260,5.6,5.6,59,0.00,,---,0.00,VWS V14.01,2013-07-03 22:15:00,
2013-07-03 18:21:00,76.0,60.2,30.00,ENE,58,5.6,6.0,58,0.00,,---,0.00,VWS V14.01,2013-07-03 22:21:00,
2013-07-03 18:26:00,76.0,60.2,30.00,SW,215,2.0,2.0,58,0.00,,---,0.00,VWS V14.01,2013-07-03 22:26:00,
2013-07-03 18:31:00,76.0,61.2,30.00,SW,215,2.0,2.0,60,0.00,,---,0.00,VWS V14.01,2013-07-03 22:31:00,
2013-07-03 18:37:00,75.9,61.0,30.00,SW,215,5.3,5.3,60,0.00,,---,0.00,VWS V14.01,2013-07-03 22:37:00,
2013-07-03 18:42:00,75.9,60.0,30.00,SE,125,6.0,6.3,58,0.00,,---,0.00,VWS V14.01,2013-07-03 22:42:00,
2013-07-03 18:47:00,75.3,60.5,30.00,WSW,238,7.0,7.0,60,0.00,,---,0.00,VWS V14.01,2013-07-03 22:47:00,
2013-07-03 18:53:00,75.3,60.5,30.00,SW,215,8.6,8.6,60,0.00,,---,0.00,VWS V14.01,2013-07-03 22:53:00,
2013-07-03 18:58:00,75.1,60.8,30.00,SW,215,2.0,4.3,61,0.00,,---,0.00,VWS V14.01,2013-07-03 22:58:00,
2013-07-03 19:03:00,75.1,60.8,30.00,SW,215,4.0,4.0,61,0.00,,---,0.00,VWS V14.01,2013-07-03 23:03:00,
2013-07-03 19:08:00,75.1,60.8,30.00,SW,215,4.0,4.0,61,0.00,,---,0.00,VWS V14.01,2013-07-03 23:08:00,
2013-07-03 19:13:00,75.0,60.6,30.00,SE,125,2.3,3.0,61,0.00,,---,0.00,VWS V14.01,2013-07-03 23:13:00,
2013-07-03 19:18:00,74.8,60.5,30.00,WNW,282,0.0,0.0,61,0.00,,---,0.00,VWS V14.01,2013-07-03 23:18:00,
2013-07-03 19:24:00,74.6,60.7,30.00,SW,215,0.0,0.0,62,0.00,,---,0.00,VWS V14.01,2013-07-03 23:24:00,
2013-07-03 19:30:00,74.6,60.7,30.00,West,260,4.0,7.3,62,0.00,,---,0.00,VWS V14.01,2013-07-03 23:30:00,
2013-07-03 19:35:00,74.4,61.0,30.03,West,260,4.0,4.0,63,0.00,,---,0.00,VWS V14.01,2013-07-03 23:35:00,
2013-07-03 19:40:00,74.2,60.4,30.03,West,260,2.0,2.0,62,0.00,,---,0.00,VWS V14.01,2013-07-03 23:40:00,
2013-07-03 19:45:00,74.1,60.7,30.03,West,260,3.0,3.0,63,0.00,,---,0.00,VWS V14.01,2013-07-03 23:45:00,
2013-07-03 19:50:00,74.1,60.2,30.03,West,260,4.3,4.3,62,0.00,,---,0.00,VWS V14.01,2013-07-03 23:50:00,
2013-07-03 19:55:00,73.7,60.3,30.03,North,350,0.0,0.0,63,0.00,,---,0.00,VWS V14.01,2013-07-03 23:55:00,
2013-07-03 20:00:00,73.3,60.0,30.03,ESE,102,5.6,5.6,63,0.00,,---,0.00,VWS V14.01,2013-07-04 00:00:00,
2013-07-03 20:06:00,73.0,60.5,30.03,SW,215,1.7,1.7,65,0.00,,---,0.00,VWS V14.01,2013-07-04 00:06:00,
2013-07-03 20:11:00,73.0,60.5,30.03,SW,215,1.3,2.3,65,0.00,,---,0.00,VWS V14.01,2013-07-04 00:11:00,
2013-07-03 20:16:00,73.0,60.5,30.03,SW,215,0.0,0.0,65,0.00,,---,0.00,VWS V14.01,2013-07-04 00:16:00,
2013-07-03 20:21:00,72.6,60.6,30.03,SW,215,0.0,0.0,66,0.00,,---,0.00,VWS V14.01,2013-07-04 00:21:00,
2013-07-03 20:27:00,72.4,60.9,30.03,SW,215,0.0,0.0,67,0.00,,---,0.00,VWS V14.01,2013-07-04 00:27:00,
2013-07-03 20:32:00,72.3,60.7,30.03,SW,215,1.7,1.7,67,0.00,,---,0.00,VWS V14.01,2013-07-04 00:32:00,
2013-07-03 20:37:00,72.1,61.0,30.03,WNW,282,0.0,0.0,68,0.00,,---,0.00,VWS V14.01,2013-07-04 00:37:00,
2013-07-03 20:44:00,72.1,61.0,30.03,SW,215,0.0,0.0,68,0.00,,---,0.00,VWS V14.01,2013-07-04 00:44:00,
2013-07-03 20:49:00,71.9,60.8,30.03,SW,215,1.7,1.7,68,0.00,,---,0.00,VWS V14.01,2013-07-04 00:49:00,
2013-07-03 20:54:00,71.7,60.6,30.03,SW,215,0.0,0.0,68,0.00,,---,0.00,VWS V14.01,2013-07-04 00:54:00,
2013-07-03 20:59:00,71.5,60.8,30.03,SW,215,0.0,0.0,69,0.00,,---,0.00,VWS V14.01,2013-07-04 00:59:00,
2013-07-03 21:06:00,71.4,60.7,30.03,East,80,0.0,0.0,69,0.00,,---,0.00,VWS V14.01,2013-07-04 01:06:00,
2013-07-03 21:11:00,71.4,60.7,30.03,SE,125,0.0,0.0,69,0.00,,---,0.00,VWS V14.01,2013-07-04 01:11:00,
2013-07-03 21:16:00,71.0,60.3,30.03,WNW,282,0.0,0.0,69,0.00,,---,0.00,VWS V14.01,2013-07-04 01:16:00,
2013-07-03 21:21:00,70.8,60.6,30.03,West,260,0.0,0.0,70,0.00,,---,0.00,VWS V14.01,2013-07-04 01:21:00,
2013-07-03 21:27:00,70.5,60.6,30.03,NW,305,0.0,0.0,71,0.00,,---,0.00,VWS V14.01,2013-07-04 01:27:00,
2013-07-03 21:33:00,70.3,60.4,30.03,NW,305,0.0,0.0,71,0.00,,---,0.00,VWS V14.01,2013-07-04 01:33:00,
2013-07-03 21:38:00,70.1,60.7,30.03,NW,305,0.0,0.0,72,0.00,,---,0.00,VWS V14.01,2013-07-04 01:38:00,
2013-07-03 21:43:00,69.7,61.1,30.03,NW,305,0.0,0.0,74,0.00,,---,0.00,VWS V14.01,2013-07-04 01:43:00,
2013-07-03 21:49:00,69.6,60.9,30.03,NW,305,0.0,0.0,74,0.00,,---,0.00,VWS V14.01,2013-07-04 01:49:00,
2013-07-03 21:54:00,69.2,61.3,30.03,NW,305,0.0,0.0,76,0.00,,---,0.00,VWS V14.01,2013-07-04 01:54:00,
2013-07-03 22:00:00,69.0,61.2,30.03,NW,305,0.0,0.0,76,0.00,,---,0.00,VWS V14.01,2013-07-04 02:00:00,
2013-07-03 22:05:00,68.8,61.7,30.06,NW,305,0.0,0.0,78,0.00,,---,0.00,VWS V14.01,2013-07-04 02:05:00,
2013-07-03 22:11:00,68.7,61.5,30.06,NW,305,0.0,0.0,78,0.00,,---,0.00,VWS V14.01,2013-07-04 02:11:00,
2013-07-03 22:16:00,68.7,61.9,30.06,NW,305,0.0,0.0,79,0.00,,---,0.00,VWS V14.01,2013-07-04 02:16:00,
2013-07-03 22:21:00,68.7,62.2,30.06,NW,305,0.0,0.0,80,0.00,,---,0.00,VWS V14.01,2013-07-04 02:21:00,
2013-07-03 22:26:00,68.7,61.9,30.06,NW,305,0.0,0.0,79,0.00,,---,0.00,VWS V14.01,2013-07-04 02:26:00,
2013-07-03 22:32:00,68.7,62.2,30.06,NW,305,0.0,0.0,80,0.00,,---,0.00,VWS V14.01,2013-07-04 02:32:00,
2013-07-03 22:37:00,68.5,62.1,30.06,NW,305,0.0,0.0,80,0.00,,---,0.00,VWS V14.01,2013-07-04 02:37:00,
2013-07-03 22:42:00,68.5,62.4,30.06,NW,305,0.0,0.0,81,0.00,,---,0.00,VWS V14.01,2013-07-04 02:42:00,
2013-07-03 22:47:00,68.5,62.4,30.06,NW,305,0.0,0.0,81,0.00,,---,0.00,VWS V14.01,2013-07-04 02:47:00,
2013-07-03 22:53:00,68.5,62.4,30.06,NW,305,0.0,0.0,81,0.00,,---,0.00,VWS V14.01,2013-07-04 02:53:00,
2013-07-03 22:58:00,68.3,62.6,30.06,NW,305,0.0,0.0,82,0.00,,---,0.00,VWS V14.01,2013-07-04 02:58:00,
2013-07-03 23:03:00,68.3,62.6,30.06,NW,305,0.0,0.0,82,0.00,,---,0.00,VWS V14.01,2013-07-04 03:03:00,
2013-07-03 23:08:00,68.1,62.8,30.06,NW,305,0.0,0.0,83,0.00,,---,0.00,VWS V14.01,2013-07-04 03:08:00,
2013-07-03 23:13:00,68.1,62.8,30.06,NW,305,0.0,0.0,83,0.00,,---,0.00,VWS V14.01,2013-07-04 03:13:00,
2013-07-03 23:18:00,67.9,62.2,30.06,NW,305,0.0,0.0,82,0.00,,---,0.00,VWS V14.01,2013-07-04 03:18:00,
2013-07-03 23:23:00,67.8,62.1,30.06,NW,305,0.0,0.0,82,0.00,,---,0.00,VWS V14.01,2013-07-04 03:23:00,
2013-07-03 23:30:00,67.6,62.2,30.06,NW,305,0.0,0.0,83,0.00,,---,0.00,VWS V14.01,2013-07-04 03:30:00,
2013-07-03 23:35:00,67.4,62.4,30.06,NW,305,0.0,0.0,84,0.00,,---,0.00,VWS V14.01,2013-07-04 03:35:00,
2013-07-03 23:40:00,67.2,62.2,30.06,NW,305,0.0,0.0,84,0.00,,---,0.00,VWS V14.01,2013-07-04 03:40:00,
2013-07-03 23:46:00,67.0,62.4,30.06,NW,305,0.0,0.0,85,0.00,,---,0.00,VWS V14.01,2013-07-04 03:46:00,
2013-07-03 23:52:00,66.9,62.2,30.06,NW,305,0.0,0.0,85,0.00,,---,0.00,VWS V14.01,2013-07-04 03:52:00,
2013-07-03 23:57:00,66.7,62.4,30.06,NW,305,0.0,0.0,86,0.00,,---,0.00,VWS V14.01,2013-07-04 03:57:00,